SCVD/ZAL METAR and TAF weather

Enter ICAO airport designator
Station Type Date Time Source
SCVD METAR 2019/02/23 23:00 UTC NOAA

SCVD 232300Z AUTO 25007KT 210V290 4000 OVC054 17/09 Q1017


Station Type Date Time Source
SCVD Decoded METAR 2019/02/23 23:00 UTC NOAA

Valdivia, Chile (SCVD) 39-37S 073-05W
Feb 23, 2019 - 06:00 PM EST / 2019.02.23 2300 UTC
Wind: from the WSW (250 degrees) at 8 MPH (7 KT) (direction variable):0
Visibility: 2 mile(s):0
Sky conditions: overcast
Temperature: 62 F (17 C)
Dew Point: 48 F (9 C)
Relative Humidity: 59%
Pressure (altimeter): 30.03 in. Hg (1017 hPa)
ob: SCVD 232300Z AUTO 25007KT 210V290 4000 OVC054 17/09 Q1017
cycle: 23

Station Type Date Time Source
SCVD TAF 2019/02/23 12:00 UTC NOAA

TAF SCVD 231020Z 2312/2324 15005KT 9999 OVC020 TN11/2312Z TX18/2319Z
BECMG 2314/2316 21008KT BKN030


Example: see airport list